Time;durP1;ratioP1;P1;durP2;ratioP2;P2;SDS_P1;SDS_P2;PMS_P1;PMS_P2;Temp;Humidity;BMP_temperature;BMP_pressure;BME280_temperature;BME280_humidity;BME280_pressure;Samples;Min_cycle;Max_cycle;Signal;HPM_P1;HPM_P2
2021/11/27 00:00:41;;;;;;;13.10;7.97;;;1.20;99.90;1.00;98206.00;;;;5018640;27;82579;-63
2021/11/27 00:03:09;;;;;;;14.53;8.03;;;2.00;99.90;1.00;98200.00;;;;5016548;27;81900;-63
2021/11/27 00:05:37;;;;;;;15.00;7.37;;;1.20;99.90;1.00;98206.00;;;;5018311;27;83117;-63
2021/11/27 00:08:06;;;;;;;12.07;6.90;;;1.20;99.90;1.10;98195.00;;;;5018275;27;83546;-62
2021/11/27 00:10:33;;;;;;;12.37;6.73;;;1.40;99.90;1.10;98190.00;;;;5020256;27;84126;-62
2021/11/27 00:13:00;;;;;;;15.70;7.23;;;1.40;99.90;1.20;98179.00;;;;5021719;27;93795;-62
2021/11/27 00:15:28;;;;;;;13.40;7.17;;;1.40;99.90;1.20;98174.00;;;;5021033;27;98727;-64
2021/11/27 00:17:55;;;;;;;16.07;8.00;;;1.50;99.90;1.20;98188.00;;;;5021556;27;85320;-63
2021/11/27 00:20:29;;;;;;;13.33;7.43;;;1.40;99.90;1.10;98179.00;;;;5022039;27;82526;-63
2021/11/27 00:22:55;;;;;;;13.03;7.27;;;1.60;99.90;1.10;98176.00;;;;5019968;27;98093;-63
2021/11/27 00:25:21;;;;;;;10.73;6.77;;;2.30;99.90;1.10;98173.00;;;;5020094;27;84139;-63
2021/11/27 00:27:47;;;;;;;9.37;7.00;;;1.30;99.90;1.00;98176.00;;;;5021890;27;85310;-63
2021/11/27 00:30:18;;;;;;;11.40;6.63;;;1.40;99.90;0.90;98180.00;;;;5020867;27;97324;-63
2021/11/27 00:32:44;;;;;;;13.83;7.67;;;1.20;99.90;0.80;98182.00;;;;5018549;27;82764;-64
2021/11/27 00:35:10;;;;;;;13.60;7.73;;;2.10;99.90;0.80;98181.00;;;;5020542;27;104485;-62
2021/11/27 00:37:37;;;;;;;11.37;7.13;;;1.10;99.90;0.60;98181.00;;;;5021006;27;84370;-63
2021/11/27 00:40:06;;;;;;;14.47;7.30;;;0.90;99.90;0.60;98172.00;;;;5021347;27;82767;-63
2021/11/27 00:42:32;;;;;;;14.97;8.60;;;1.00;99.90;0.50;98170.00;;;;5021085;27;95723;-63
2021/11/27 00:44:58;;;;;;;13.30;8.13;;;1.10;99.90;0.40;98175.00;;;;5021064;27;84081;-63
2021/11/27 00:47:25;;;;;;;16.77;9.27;;;0.70;99.90;0.30;98166.00;;;;5018281;27;112646;-63
2021/11/27 00:49:54;;;;;;;17.00;8.13;;;0.70;99.90;0.30;98167.00;;;;5009508;27;91009;-63
2021/11/27 00:52:22;;;;;;;17.13;8.80;;;0.60;99.90;0.20;98156.00;;;;5021081;27;81750;-63
2021/11/27 00:54:47;;;;;;;13.70;8.13;;;1.30;99.90;0.10;98153.00;;;;5007588;27;83315;-63
2021/11/27 00:57:14;;;;;;;12.50;7.53;;;0.40;99.90;0.10;98159.00;;;;4999831;28;112643;-62
2021/11/27 00:59:39;;;;;;;11.50;7.70;;;1.20;99.90;0.00;98159.00;;;;5012961;27;93566;-64
2021/11/27 01:02:05;;;;;;;13.53;9.10;;;0.40;99.90;-0.10;98155.00;;;;5020442;27;100507;-63
2021/11/27 01:04:31;;;;;;;13.90;7.97;;;0.70;99.90;-0.10;98146.00;;;;5018658;27;102910;-63
2021/11/27 01:06:57;;;;;;;16.90;7.97;;;0.80;99.90;-0.20;98156.00;;;;5019206;27;112604;-62
2021/11/27 01:09:23;;;;;;;12.90;8.63;;;0.10;99.90;-0.30;98140.00;;;;5015909;27;110687;-63
2021/11/27 01:11:54;;;;;;;12.37;8.37;;;0.10;99.90;-0.40;98144.00;;;;4999784;28;109979;-62
2021/11/27 01:14:26;;;;;;;15.23;9.10;;;0.50;99.90;-0.40;98150.00;;;;5000819;27;96271;-63
2021/11/27 01:17:04;;;;;;;17.13;8.87;;;-0.10;99.90;-0.50;98139.00;;;;5000495;28;83526;-62
2021/11/27 01:19:32;;;;;;;11.27;8.63;;;-0.10;99.90;-0.50;98139.00;;;;5000748;27;82821;-65
2021/11/27 01:22:06;;;;;;;11.87;8.60;;;0.00;99.90;-0.50;98143.00;;;;5000032;28;82707;-64
2021/11/27 01:24:32;;;;;;;17.33;9.53;;;-0.10;99.90;-0.60;98140.00;;;;5000394;28;84089;-62
2021/11/27 01:26:59;;;;;;;12.13;8.70;;;-0.10;99.90;-0.60;98134.00;;;;4999658;27;84405;-65
2021/11/27 01:29:25;;;;;;;11.70;8.73;;;-0.30;99.90;-0.60;98135.00;;;;5000793;27;82653;-62
2021/11/27 01:31:51;;;;;;;13.60;7.90;;;-0.30;99.90;-0.60;98132.00;;;;4999474;28;86261;-63
2021/11/27 01:34:17;;;;;;;16.90;9.80;;;0.40;99.90;-0.70;98129.00;;;;5000498;27;84127;-63
2021/11/27 01:36:43;;;;;;;15.10;8.63;;;-0.40;99.90;-0.70;98133.00;;;;5019860;27;83117;-62
2021/11/27 01:39:09;;;;;;;19.27;9.53;;;-0.30;99.90;-0.80;98132.00;;;;5018748;27;82582;-65
2021/11/27 01:41:37;;;;;;;17.30;10.07;;;-0.40;99.90;-0.90;98132.00;;;;5000581;27;82007;-65
2021/11/27 01:44:03;;;;;;;18.27;9.73;;;-0.50;99.90;-0.90;98123.00;;;;4999608;27;84313;-65
2021/11/27 01:46:30;;;;;;;18.53;9.53;;;-0.50;99.90;-0.90;98138.00;;;;5004706;27;82836;-65
2021/11/27 01:48:56;;;;;;;14.63;9.23;;;-0.50;99.90;-1.00;98116.00;;;;5020342;27;83596;-64
2021/11/27 01:51:23;;;;;;;15.37;9.80;;;-0.70;99.90;-1.00;98124.00;;;;5013871;27;82603;-64
2021/11/27 01:54:03;;;;;;;18.70;9.70;;;-0.70;99.90;-1.10;98135.00;;;;5000030;27;92188;-64
2021/11/27 01:56:37;;;;;;;16.30;9.17;;;-0.60;99.90;-1.10;98125.00;;;;4999605;28;82693;-64
2021/11/27 01:59:05;;;;;;;14.97;8.87;;;-0.80;99.90;-1.10;98131.00;;;;5001507;27;82668;-64
2021/11/27 02:01:33;;;;;;;14.50;9.47;;;-0.70;99.90;-1.10;98117.00;;;;5019833;27;82743;-65
2021/11/27 02:04:01;;;;;;;12.93;8.23;;;-0.80;99.90;-1.10;98121.00;;;;5009228;27;99021;-64
2021/11/27 02:06:28;;;;;;;15.50;9.87;;;-0.70;99.90;-1.20;98123.00;;;;4999872;27;98248;-64
2021/11/27 02:08:56;;;;;;;15.53;9.90;;;-0.70;99.90;-1.20;98113.00;;;;4999617;27;82953;-64
2021/11/27 02:11:29;;;;;;;14.97;9.13;;;-0.80;99.90;-1.20;98114.00;;;;4999396;28;95357;-64
2021/11/27 02:13:56;;;;;;;17.03;9.97;;;-0.90;99.90;-1.20;98110.00;;;;5001633;27;83846;-64
2021/11/27 02:16:22;;;;;;;16.90;9.90;;;-0.90;99.90;-1.20;98119.00;;;;5017142;27;113449;-65
2021/11/27 02:18:48;;;;;;;15.60;11.00;;;-0.90;99.90;-1.20;98100.00;;;;5018727;27;95536;-64
2021/11/27 02:21:19;;;;;;;16.23;9.60;;;-0.60;99.90;-1.20;98098.00;;;;5019088;27;88182;-64
2021/11/27 02:23:48;;;;;;;16.57;10.33;;;-0.90;99.90;-1.20;98095.00;;;;5010852;27;97097;-64
2021/11/27 02:26:17;;;;;;;17.17;9.63;;;-0.80;99.90;-1.30;98089.00;;;;4999023;28;84332;-64
2021/11/27 02:28:53;;;;;;;16.70;10.17;;;-0.90;99.90;-1.30;98079.00;;;;5001850;27;83966;-65
2021/11/27 02:31:21;;;;;;;16.87;10.57;;;-0.90;99.90;-1.30;98084.00;;;;5019024;27;83281;-64
2021/11/27 02:33:47;;;;;;;17.63;10.90;;;-0.90;99.90;-1.30;98087.00;;;;5018230;27;83413;-64
2021/11/27 02:36:14;;;;;;;16.80;10.30;;;-0.80;99.90;-1.30;98091.00;;;;5018029;27;84707;-64
2021/11/27 02:38:41;;;;;;;17.77;10.53;;;-0.80;99.90;-1.30;98082.00;;;;5018108;27;94593;-64
2021/11/27 02:41:07;;;;;;;18.83;11.07;;;0.10;99.90;-1.30;98083.00;;;;5018631;27;83187;-64
2021/11/27 02:43:32;;;;;;;15.13;9.30;;;-0.90;99.90;-1.30;98077.00;;;;4999933;27;110403;-64
2021/11/27 02:45:58;;;;;;;12.97;8.40;;;-0.90;99.90;-1.30;98073.00;;;;4998957;27;100248;-65
2021/11/27 02:48:24;;;;;;;16.67;10.37;;;-0.90;99.90;-1.30;98068.00;;;;4999504;27;82823;-64
2021/11/27 02:50:50;;;;;;;18.27;8.30;;;-0.90;99.90;-1.30;98073.00;;;;4998196;27;99080;-64
2021/11/27 02:53:16;;;;;;;14.47;9.47;;;-0.90;99.90;-1.30;98068.00;;;;4997904;27;112107;-64
2021/11/27 02:55:44;;;;;;;18.83;9.77;;;-0.90;99.90;-1.30;98077.00;;;;4999493;27;113605;-64
2021/11/27 02:58:10;;;;;;;15.13;9.27;;;0.00;99.90;-1.30;98083.00;;;;4998747;28;87896;-63
2021/11/27 03:00:36;;;;;;;14.70;9.60;;;-1.00;99.90;-1.30;98078.00;;;;4999729;27;93889;-64
2021/11/27 03:03:01;;;;;;;14.00;8.13;;;-1.00;99.90;-1.30;98069.00;;;;4998338;27;96824;-63
2021/11/27 03:05:27;;;;;;;15.63;9.20;;;-1.00;99.90;-1.30;98062.00;;;;4998199;27;112965;-64
2021/11/27 03:07:53;;;;;;;15.50;8.30;;;-1.00;99.90;-1.30;98068.00;;;;4998752;27;82869;-64
2021/11/27 03:10:20;;;;;;;16.90;8.27;;;-0.90;99.90;-1.40;98081.00;;;;5006681;27;109573;-63
2021/11/27 03:12:47;;;;;;;12.70;7.60;;;-1.00;99.90;-1.40;98073.00;;;;5011894;27;85503;-63
2021/11/27 03:15:16;;;;;;;10.97;8.27;;;-0.90;99.90;-1.40;98078.00;;;;5010912;27;82928;-63
2021/11/27 03:17:43;;;;;;;14.40;9.30;;;-1.00;99.90;-1.40;98072.00;;;;5018385;27;90865;-64
2021/11/27 03:20:12;;;;;;;13.67;8.77;;;-0.20;99.90;-1.40;98068.00;;;;5019584;27;81842;-63
2021/11/27 03:22:38;;;;;;;17.50;9.10;;;-1.00;99.90;-1.40;98072.00;;;;5015983;27;82793;-63
2021/11/27 03:25:05;;;;;;;11.03;8.07;;;-1.00;99.90;-1.40;98083.00;;;;5016623;27;83740;-63
2021/11/27 03:27:31;;;;;;;16.33;9.67;;;-0.90;99.90;-1.40;98088.00;;;;4998053;28;83739;-63
2021/11/27 03:29:57;;;;;;;12.83;8.27;;;-1.10;99.90;-1.50;98088.00;;;;4999219;27;85699;-63
2021/11/27 03:32:23;;;;;;;14.93;9.77;;;-1.10;99.90;-1.50;98080.00;;;;4998746;28;83561;-64
2021/11/27 03:34:50;;;;;;;13.57;7.73;;;-1.20;99.90;-1.50;98076.00;;;;4999036;27;83231;-63
2021/11/27 03:37:18;;;;;;;14.97;9.13;;;-1.20;99.90;-1.50;98082.00;;;;5000690;27;82811;-64
2021/11/27 03:39:44;;;;;;;16.30;9.10;;;-1.10;99.90;-1.60;98076.00;;;;5018181;27;82559;-63
2021/11/27 03:42:13;;;;;;;16.43;10.30;;;-1.20;99.90;-1.60;98070.00;;;;5018042;27;83932;-64
2021/11/27 03:44:41;;;;;;;13.93;9.20;;;-1.10;99.90;-1.60;98073.00;;;;5020774;27;84815;-63
2021/11/27 03:47:07;;;;;;;20.73;9.30;;;-1.20;99.90;-1.60;98072.00;;;;5021237;27;82827;-64
2021/11/27 03:49:33;;;;;;;17.97;9.43;;;-1.20;99.90;-1.70;98065.00;;;;5004128;27;82556;-64
2021/11/27 03:52:00;;;;;;;21.20;9.73;;;-1.30;99.90;-1.70;98067.00;;;;5000404;27;113040;-64
2021/11/27 03:54:26;;;;;;;17.20;8.50;;;-1.30;99.90;-1.70;98070.00;;;;5001828;27;84399;-63
2021/11/27 03:56:53;;;;;;;16.40;8.07;;;-1.30;99.90;-1.70;98075.00;;;;5002175;27;82746;-62
2021/11/27 03:59:20;;;;;;;14.03;7.40;;;-1.30;99.90;-1.70;98076.00;;;;5001688;27;82552;-64
2021/11/27 04:01:47;;;;;;;14.30;9.50;;;-1.30;99.90;-1.70;98073.00;;;;4999559;27;84144;-65
2021/11/27 04:04:13;;;;;;;16.37;8.90;;;-1.30;99.90;-1.70;98074.00;;;;5004530;27;91675;-63
2021/11/27 04:06:39;;;;;;;11.13;7.80;;;-1.40;99.90;-1.70;98078.00;;;;5004371;27;97666;-64
2021/11/27 04:09:08;;;;;;;20.03;10.80;;;-1.20;99.90;-1.80;98067.00;;;;5003682;27;82505;-63
2021/11/27 04:11:35;;;;;;;14.83;9.43;;;-1.40;99.90;-1.80;98053.00;;;;5021039;27;84207;-64
2021/11/27 04:14:01;;;;;;;10.73;7.80;;;-0.60;99.90;-1.80;98061.00;;;;5021914;27;83319;-64
2021/11/27 04:16:27;;;;;;;19.47;9.33;;;-1.50;99.90;-1.80;98060.00;;;;5019285;27;109519;-63
2021/11/27 04:18:53;;;;;;;12.90;9.03;;;-1.40;99.90;-1.80;98062.00;;;;5020846;27;108411;-63
2021/11/27 04:21:19;;;;;;;18.17;9.97;;;-1.40;99.90;-1.80;98059.00;;;;5021434;27;84030;-64
2021/11/27 04:23:47;;;;;;;15.63;10.13;;;-1.40;99.90;-1.80;98066.00;;;;5009917;27;83892;-64
2021/11/27 04:26:13;;;;;;;16.40;9.77;;;-1.50;99.90;-1.80;98063.00;;;;5000310;27;83697;-63
2021/11/27 04:28:40;;;;;;;11.97;9.60;;;-1.40;99.90;-1.80;98065.00;;;;5001557;27;82998;-64
2021/11/27 04:31:06;;;;;;;13.80;8.73;;;-1.50;99.90;-1.90;98067.00;;;;4998037;27;117613;-64
2021/11/27 04:33:32;;;;;;;16.67;10.23;;;-1.50;99.90;-1.90;98080.00;;;;5001484;27;88602;-64
2021/11/27 04:35:58;;;;;;;16.97;9.30;;;-0.40;99.90;-1.90;98076.00;;;;5017864;27;93123;-63
2021/11/27 04:38:24;;;;;;;22.03;10.10;;;-1.50;99.90;-1.90;98087.00;;;;5017583;27;92642;-64
2021/11/27 04:40:52;;;;;;;16.93;10.23;;;-1.50;99.90;-1.90;98083.00;;;;4997595;27;89156;-64
2021/11/27 04:43:18;;;;;;;15.03;9.37;;;-1.60;99.90;-1.90;98075.00;;;;4998658;27;88961;-64
2021/11/27 04:45:45;;;;;;;14.60;9.53;;;-1.60;99.90;-2.00;98082.00;;;;4998072;28;98182;-64
2021/11/27 04:48:11;;;;;;;13.53;9.53;;;-1.60;99.90;-2.00;98089.00;;;;4998448;28;88059;-63
2021/11/27 04:50:39;;;;;;;11.13;8.77;;;-1.50;99.90;-2.00;98084.00;;;;4998387;27;87625;-63
2021/11/27 04:53:05;;;;;;;16.73;9.37;;;-1.60;99.90;-2.00;98085.00;;;;4998700;27;88441;-63
2021/11/27 04:55:32;;;;;;;16.90;10.47;;;-1.60;99.90;-2.10;98082.00;;;;4997723;27;87928;-63
2021/11/27 04:57:59;;;;;;;15.93;8.77;;;-0.90;99.90;-2.10;98083.00;;;;5012796;27;87488;-64
2021/11/27 05:00:32;;;;;;;12.17;8.37;;;-0.70;99.90;-2.10;98083.00;;;;4998019;27;87996;-63
2021/11/27 05:02:57;;;;;;;11.10;8.73;;;-0.80;99.90;-2.10;98093.00;;;;5014408;27;100281;-65
2021/11/27 05:05:23;;;;;;;18.17;9.53;;;-1.80;99.90;-2.10;98088.00;;;;5017430;27;109837;-63
2021/11/27 05:07:50;;;;;;;13.17;7.93;;;-1.70;99.90;-2.10;98094.00;;;;5016943;27;91095;-63
2021/11/27 05:10:16;;;;;;;13.47;9.13;;;-1.70;99.90;-2.10;98094.00;;;;5016445;27;94525;-63
2021/11/27 05:12:43;;;;;;;15.97;9.43;;;-1.70;99.90;-2.10;98084.00;;;;5017569;27;103388;-63
2021/11/27 05:15:10;;;;;;;17.47;10.73;;;-1.80;99.90;-2.20;98073.00;;;;5016551;27;87752;-63
2021/11/27 05:17:37;;;;;;;13.57;9.83;;;-1.80;99.90;-2.20;98065.00;;;;5017494;27;95978;-63
2021/11/27 05:20:06;;;;;;;13.43;9.47;;;-0.80;99.90;-2.20;98067.00;;;;5017977;27;101425;-65
2021/11/27 05:22:31;;;;;;;19.63;9.63;;;-1.70;99.90;-2.10;98073.00;;;;5017870;27;87190;-64
2021/11/27 05:24:59;;;;;;;16.83;10.00;;;-1.80;99.90;-2.10;98076.00;;;;5017347;27;98452;-64
2021/11/27 05:27:26;;;;;;;19.07;12.93;;;-1.80;99.90;-2.10;98085.00;;;;5017469;27;87987;-64
2021/11/27 05:29:51;;;;;;;15.73;10.33;;;-1.70;99.90;-2.10;98078.00;;;;5006873;27;88607;-64
2021/11/27 05:32:39;;;;;;;20.17;11.67;;;-1.70;99.90;-2.00;98072.00;;;;4997000;28;89063;-64
2021/11/27 05:35:08;;;;;;;14.70;9.27;;;-1.70;99.90;-2.00;98089.00;;;;5009920;27;87836;-64
2021/11/27 05:37:34;;;;;;;13.90;10.23;;;-1.60;99.90;-2.00;98083.00;;;;5017612;27;87697;-65
2021/11/27 05:40:03;;;;;;;19.80;11.13;;;-1.60;99.90;-2.00;98086.00;;;;5016959;27;88306;-64
2021/11/27 05:42:29;;;;;;;20.53;9.10;;;-1.70;99.90;-2.00;98078.00;;;;5002300;27;88692;-64
2021/11/27 05:44:55;;;;;;;19.87;11.70;;;-1.60;99.90;-1.90;98073.00;;;;5015833;27;112403;-64
2021/11/27 05:47:22;;;;;;;17.60;10.90;;;-1.60;99.90;-1.90;98076.00;;;;5017960;27;87697;-64
2021/11/27 05:49:49;;;;;;;20.70;12.27;;;-1.50;99.90;-1.90;98075.00;;;;5016915;27;89127;-64
2021/11/27 05:52:16;;;;;;;19.40;12.60;;;-1.50;99.90;-1.90;98094.00;;;;5016591;27;88797;-64
2021/11/27 05:54:42;;;;;;;19.63;11.23;;;-1.60;99.90;-1.90;98086.00;;;;5016137;27;88831;-63
2021/11/27 05:57:08;;;;;;;17.43;10.90;;;-1.50;99.90;-1.80;98078.00;;;;5011105;27;87726;-64
2021/11/27 05:59:34;;;;;;;17.57;10.37;;;-1.40;99.90;-1.80;98080.00;;;;5004432;27;117440;-64
2021/11/27 06:02:00;;;;;;;19.07;10.57;;;-0.80;99.90;-1.80;98060.00;;;;5016520;27;87689;-64
2021/11/27 06:04:26;;;;;;;23.03;10.77;;;-1.50;99.90;-1.70;98058.00;;;;5004494;27;87830;-64
2021/11/27 06:06:52;;;;;;;18.27;10.43;;;-1.40;99.90;-1.60;98054.00;;;;4996026;27;108739;-64
2021/11/27 06:09:18;;;;;;;16.30;11.13;;;-1.40;99.90;-1.60;98068.00;;;;5008840;27;88827;-64
2021/11/27 06:11:44;;;;;;;15.50;11.07;;;-1.30;99.90;-1.50;98078.00;;;;5016579;27;92667;-63
2021/11/27 06:14:10;;;;;;;19.97;11.27;;;-1.20;99.90;-1.50;98074.00;;;;5014499;27;89519;-64
2021/11/27 06:16:36;;;;;;;19.57;12.23;;;-1.10;99.90;-1.50;98074.00;;;;5015643;27;109040;-64
2021/11/27 06:19:03;;;;;;;15.50;10.87;;;-1.20;99.90;-1.50;98085.00;;;;5015440;27;89493;-63
2021/11/27 06:21:29;;;;;;;15.63;9.63;;;-1.10;99.90;-1.50;98089.00;;;;5016569;27;89371;-63
2021/11/27 06:23:54;;;;;;;21.07;12.40;;;-1.20;99.90;-1.50;98104.00;;;;5016110;27;96469;-64
2021/11/27 06:26:21;;;;;;;17.20;10.13;;;-1.10;99.90;-1.50;98099.00;;;;5016235;27;87670;-63
2021/11/27 06:28:47;;;;;;;20.73;12.50;;;-1.20;99.90;-1.50;98090.00;;;;5014419;27;88866;-63
2021/11/27 06:31:14;;;;;;;20.80;10.80;;;-1.20;99.90;-1.60;98098.00;;;;4999371;27;97277;-65
2021/11/27 06:33:40;;;;;;;15.77;10.17;;;-1.20;99.90;-1.60;98105.00;;;;5011161;27;87699;-64
2021/11/27 06:36:06;;;;;;;17.77;10.43;;;-1.20;99.90;-1.60;98117.00;;;;5015200;27;109603;-64
2021/11/27 06:38:32;;;;;;;14.07;10.13;;;-1.20;99.90;-1.60;98122.00;;;;5013323;27;87847;-65
2021/11/27 06:40:59;;;;;;;16.27;9.13;;;-1.30;99.90;-1.70;98122.00;;;;4996932;27;87881;-65
2021/11/27 06:43:24;;;;;;;15.23;10.57;;;-1.30;99.90;-1.70;98124.00;;;;4996849;28;88676;-64
2021/11/27 06:45:50;;;;;;;17.93;11.20;;;-0.60;99.90;-1.80;98132.00;;;;4994268;27;88248;-63
2021/11/27 06:48:16;;;;;;;16.97;10.17;;;-0.70;99.90;-1.80;98132.00;;;;4990778;27;88028;-65
2021/11/27 06:50:42;;;;;;;20.50;12.77;;;-1.40;99.90;-1.80;98136.00;;;;4992439;27;102862;-64
2021/11/27 06:53:07;;;;;;;21.43;12.53;;;-1.40;99.90;-1.80;98143.00;;;;4993166;27;87880;-64
2021/11/27 06:55:34;;;;;;;16.60;10.83;;;-1.40;99.90;-1.80;98142.00;;;;4993696;27;108695;-64
2021/11/27 06:57:59;;;;;;;17.60;10.57;;;-1.50;99.90;-1.90;98150.00;;;;4993903;27;103743;-64
2021/11/27 07:00:25;;;;;;;14.67;9.97;;;-1.50;99.90;-1.90;98137.00;;;;4997667;27;87866;-64
2021/11/27 07:02:51;;;;;;;14.73;10.20;;;-1.50;99.90;-2.00;98136.00;;;;4993283;27;87861;-64
2021/11/27 07:05:17;;;;;;;20.33;12.23;;;-1.60;99.90;-2.00;98135.00;;;;4994041;27;87744;-64
2021/11/27 07:07:42;;;;;;;21.57;11.40;;;-1.60;99.90;-2.00;98135.00;;;;4992754;27;119262;-64
2021/11/27 07:10:09;;;;;;;19.53;11.83;;;-1.60;99.90;-1.90;98140.00;;;;4992125;27;89543;-64
2021/11/27 07:12:38;;;;;;;16.67;10.17;;;-1.60;99.90;-1.90;98135.00;;;;4991982;27;112849;-64
2021/11/27 07:15:05;;;;;;;17.33;10.27;;;-1.50;99.90;-1.70;98138.00;;;;4993239;27;87792;-65
2021/11/27 07:17:32;;;;;;;17.37;12.23;;;-1.40;99.90;-1.60;98140.00;;;;4992195;27;87937;-64
2021/11/27 07:19:58;;;;;;;27.33;17.80;;;-1.30;99.90;-1.40;98132.00;;;;4999921;27;87926;-64
2021/11/27 07:22:25;;;;;;;32.53;18.80;;;-1.20;99.90;-1.20;98136.00;;;;4992487;27;87853;-64
2021/11/27 07:24:51;;;;;;;39.17;16.10;;;-0.90;99.90;-1.00;98143.00;;;;4997242;27;87061;-64
2021/11/27 07:27:17;;;;;;;26.60;17.07;;;-0.80;99.90;-0.80;98139.00;;;;4992191;27;89212;-64
2021/11/27 07:29:43;;;;;;;19.90;14.23;;;-0.50;99.90;-0.60;98145.00;;;;4992078;27;88003;-64
2021/11/27 07:32:09;;;;;;;29.33;16.57;;;-0.40;99.90;-0.30;98144.00;;;;4992018;27;88766;-63
2021/11/27 07:34:35;;;;;;;25.87;15.00;;;-0.10;99.90;-0.10;98141.00;;;;5002955;27;87655;-65
2021/11/27 07:37:01;;;;;;;33.07;18.83;;;0.10;99.90;0.20;98143.00;;;;4996470;27;88040;-63
2021/11/27 07:39:27;;;;;;;22.13;13.67;;;0.30;99.90;0.40;98147.00;;;;4991507;27;99096;-64
2021/11/27 07:41:52;;;;;;;26.27;15.00;;;1.20;99.90;0.60;98153.00;;;;4991553;27;113094;-64
2021/11/27 07:44:18;;;;;;;23.67;13.87;;;0.80;99.90;0.80;98156.00;;;;4992817;27;93083;-64
2021/11/27 07:46:47;;;;;;;23.50;15.70;;;1.60;99.90;1.10;98157.00;;;;4997434;27;89332;-64
2021/11/27 07:49:14;;;;;;;24.40;14.70;;;1.20;99.90;1.30;98152.00;;;;4995039;27;88538;-64
2021/11/27 07:51:43;;;;;;;26.37;15.47;;;2.20;99.90;1.50;98162.00;;;;4990669;27;113442;-64
2021/11/27 07:54:08;;;;;;;23.20;14.27;;;2.60;99.90;1.80;98152.00;;;;4999927;27;87565;-64
2021/11/27 07:56:34;;;;;;;24.13;13.47;;;1.90;99.90;2.20;98137.00;;;;4996476;27;118287;-64
2021/11/27 07:59:00;;;;;;;21.07;12.30;;;3.00;99.90;2.50;98137.00;;;;4991341;27;89565;-63
2021/11/27 08:01:25;;;;;;;20.00;11.63;;;2.60;99.90;2.90;98129.00;;;;4998973;27;98992;-63
2021/11/27 08:03:51;;;;;;;16.93;11.13;;;2.90;99.90;3.20;98133.00;;;;4993512;27;88033;-63
2021/11/27 08:06:17;;;;;;;22.17;12.83;;;3.20;99.90;3.50;98135.00;;;;4991561;27;88909;-64
2021/11/27 08:08:42;;;;;;;16.60;11.23;;;3.60;99.90;3.80;98124.00;;;;4991118;27;117535;-64
2021/11/27 08:11:09;;;;;;;22.67;13.37;;;3.90;99.90;4.10;98142.00;;;;4998030;27;113225;-64
2021/11/27 08:13:37;;;;;;;248.90;156.03;;;4.10;99.90;4.30;98135.00;;;;4998649;27;87589;-63
2021/11/27 08:16:03;;;;;;;104.27;54.10;;;4.50;99.90;4.60;98144.00;;;;4994806;27;89104;-64
2021/11/27 08:18:29;;;;;;;125.07;73.20;;;4.60;99.90;5.00;98143.00;;;;4991576;27;104125;-64
2021/11/27 08:20:55;;;;;;;44.77;26.57;;;4.90;99.90;5.30;98153.00;;;;4990973;27;98806;-64
2021/11/27 08:23:20;;;;;;;19.20;13.33;;;5.40;99.90;5.70;98148.00;;;;4991797;27;97538;-64
2021/11/27 08:25:46;;;;;;;25.47;12.53;;;5.60;99.90;6.00;98151.00;;;;4995592;27;117865;-64
2021/11/27 08:28:13;;;;;;;19.73;13.50;;;5.90;99.90;6.20;98169.00;;;;4991386;27;88629;-64
2021/11/27 08:30:39;;;;;;;19.83;10.17;;;6.20;99.90;6.40;98165.00;;;;4993245;27;87880;-64
2021/11/27 08:33:05;;;;;;;15.33;8.03;;;6.40;99.90;6.60;98160.00;;;;4995160;27;88161;-64
2021/11/27 08:35:31;;;;;;;17.20;9.13;;;6.60;99.90;6.90;98156.00;;;;4999635;27;118245;-65
2021/11/27 08:37:58;;;;;;;17.83;9.50;;;6.80;99.90;7.10;98153.00;;;;4995577;27;88726;-64
2021/11/27 08:40:24;;;;;;;15.80;10.00;;;7.00;99.90;7.40;98155.00;;;;4995994;27;87841;-65
2021/11/27 08:42:50;;;;;;;15.27;9.93;;;7.40;99.90;7.70;98146.00;;;;4995962;27;108387;-64
2021/11/27 08:45:16;;;;;;;15.77;9.23;;;7.60;99.90;8.00;98160.00;;;;5000163;27;89715;-64
2021/11/27 08:47:42;;;;;;;14.83;10.00;;;7.90;99.90;8.10;98167.00;;;;4994289;27;100727;-65
2021/11/27 08:50:10;;;;;;;22.63;12.80;;;8.10;99.90;8.20;98167.00;;;;4993524;27;110545;-65
2021/11/27 08:52:35;;;;;;;22.20;14.53;;;8.20;99.90;8.20;98177.00;;;;4998415;27;87794;-64
2021/11/27 08:55:02;;;;;;;29.17;16.77;;;8.20;99.90;8.10;98172.00;;;;4998070;27;117046;-64
2021/11/27 08:57:27;;;;;;;16.17;10.87;;;8.20;99.90;8.00;98172.00;;;;4992702;27;87961;-63
2021/11/27 08:59:53;;;;;;;13.93;10.23;;;8.10;99.90;8.00;98168.00;;;;4994500;27;87545;-64
2021/11/27 09:02:19;;;;;;;16.73;9.03;;;8.10;99.90;8.10;98172.00;;;;4994227;27;109383;-64
2021/11/27 09:04:45;;;;;;;13.67;8.23;;;8.20;99.90;8.10;98186.00;;;;4997566;27;118335;-64
2021/11/27 09:07:11;;;;;;;13.87;8.43;;;8.10;99.90;8.20;98189.00;;;;4997166;27;88642;-64
2021/11/27 09:09:38;;;;;;;12.97;8.40;;;8.20;99.30;8.30;98197.00;;;;4994297;27;109479;-64
2021/11/27 09:12:06;;;;;;;13.60;8.93;;;8.20;98.70;8.20;98201.00;;;;4996677;27;88066;-65
2021/11/27 09:14:33;;;;;;;15.03;8.50;;;8.30;97.30;8.10;98202.00;;;;4994410;27;103928;-65
2021/11/27 09:17:00;;;;;;;17.93;8.37;;;8.20;96.90;7.80;98219.00;;;;4995375;27;88198;-65
2021/11/27 09:19:25;;;;;;;12.17;7.00;;;8.50;92.50;7.30;98207.00;;;;4995383;27;96059;-64
2021/11/27 09:21:51;;;;;;;10.63;7.03;;;7.60;90.30;6.90;98203.00;;;;4993959;27;94178;-65
2021/11/27 09:24:20;;;;;;;11.93;6.53;;;7.10;92.30;6.60;98184.00;;;;4995663;27;87758;-65
2021/11/27 09:26:47;;;;;;;12.27;6.90;;;6.80;93.30;6.50;98188.00;;;;5000733;27;88861;-65
2021/11/27 09:29:17;;;;;;;7.87;6.00;;;6.60;94.50;6.50;98199.00;;;;4996433;27;88041;-64
2021/11/27 09:31:43;;;;;;;12.37;7.93;;;6.50;95.00;6.60;98199.00;;;;4994150;27;87628;-65
2021/11/27 09:34:11;;;;;;;12.53;6.90;;;6.60;95.10;6.60;98192.00;;;;4994231;27;111459;-64
2021/11/27 09:36:38;;;;;;;11.73;6.93;;;6.60;94.70;6.70;98195.00;;;;4998311;27;88909;-64
2021/11/27 09:39:09;;;;;;;9.70;6.90;;;6.70;94.80;6.60;98199.00;;;;4998987;27;87784;-66
2021/11/27 09:41:37;;;;;;;8.60;5.83;;;6.60;95.10;6.60;98194.00;;;;4993867;27;87864;-64
2021/11/27 09:44:05;;;;;;;16.70;6.93;;;6.70;94.70;6.50;98209.00;;;;4994279;27;88903;-65
2021/11/27 09:46:34;;;;;;;9.60;5.87;;;6.50;94.50;6.40;98195.00;;;;4998236;27;88821;-65
2021/11/27 09:49:04;;;;;;;7.80;6.33;;;6.50;94.30;6.40;98212.00;;;;4994027;27;87876;-64
2021/11/27 09:51:35;;;;;;;12.57;7.00;;;6.50;94.30;6.50;98206.00;;;;4994537;27;87058;-64
2021/11/27 09:54:04;;;;;;;11.00;6.43;;;6.40;94.30;6.50;98196.00;;;;4996229;27;88642;-64
2021/11/27 09:56:30;;;;;;;10.73;6.33;;;6.50;94.50;6.50;98189.00;;;;4994055;27;88198;-64
2021/11/27 09:58:57;;;;;;;10.20;6.23;;;6.50;94.50;6.50;98188.00;;;;4997527;27;88647;-64
2021/11/27 10:01:33;;;;;;;12.73;6.30;;;6.50;95.00;6.40;98197.00;;;;4994757;27;88060;-64
2021/11/27 10:04:05;;;;;;;11.50;7.30;;;6.40;94.10;6.30;98199.00;;;;5001039;27;90516;-63
2021/11/27 10:06:44;;;;;;;9.20;6.40;;;6.30;94.50;6.20;98204.00;;;;4998017;27;96496;-63
2021/11/27 10:09:19;;;;;;;12.60;7.00;;;6.30;95.10;6.10;98199.00;;;;4997512;27;88095;-63
2021/11/27 10:11:48;;;;;;;9.37;6.67;;;6.20;94.50;6.00;98206.00;;;;4993069;27;92405;-63
2021/11/27 10:14:16;;;;;;;12.23;6.77;;;6.10;93.90;5.80;98201.00;;;;4994273;27;88125;-64
2021/11/27 10:17:05;;;;;;;11.33;6.70;;;5.90;94.70;5.70;98193.00;;;;4994070;27;101500;-63
2021/11/27 10:19:42;;;;;;;14.10;6.77;;;5.90;95.30;5.70;98196.00;;;;4995945;27;87684;-62
2021/11/27 10:22:12;;;;;;;11.77;6.37;;;5.80;95.90;5.70;98201.00;;;;4994322;27;88027;-65
2021/11/27 10:24:39;;;;;;;21.27;7.77;;;5.80;95.60;5.60;98188.00;;;;4993349;27;89181;-64
2021/11/27 10:27:27;;;;;;;13.30;6.73;;;5.70;95.90;5.60;98192.00;;;;4993015;27;96235;-63
2021/11/27 10:30:06;;;;;;;10.80;6.93;;;5.60;96.10;5.60;98199.00;;;;5001398;27;87653;-63
2021/11/27 10:32:38;;;;;;;11.87;8.23;;;5.70;96.30;5.60;98191.00;;;;4993579;27;87842;-67
2021/11/27 10:35:21;;;;;;;10.90;6.30;;;5.70;96.20;5.50;98191.00;;;;4994959;27;88652;-63
2021/11/27 10:37:50;;;;;;;12.73;8.50;;;5.70;96.70;5.50;98196.00;;;;4992257;27;87989;-63
2021/11/27 10:40:29;;;;;;;8.03;5.97;;;5.60;96.50;5.60;98196.00;;;;4995267;27;87899;-64
2021/11/27 10:43:05;;;;;;;11.50;6.47;;;5.60;97.10;5.60;98194.00;;;;4992350;27;87336;-64
2021/11/27 10:45:35;;;;;;;12.73;7.23;;;5.60;96.90;5.60;98192.00;;;;4993676;27;87710;-64
2021/11/27 10:48:15;;;;;;;10.27;6.40;;;5.70;97.30;5.70;98206.00;;;;4993464;27;101951;-63
2021/11/27 10:50:54;;;;;;;9.90;6.17;;;5.80;97.60;5.70;98203.00;;;;4994422;27;88835;-64